sensor_id;sensor_type;location;lat;lon;timestamp;P1;durP1;ratioP1;P2;durP2;ratioP2
4011;SDS011;2020;48.682;9.024;2024-03-07T00:01:19;29.80;;;16.77;;
4011;SDS011;2020;48.682;9.024;2024-03-07T00:03:45;30.63;;;18.23;;
4011;SDS011;2020;48.682;9.024;2024-03-07T00:06:11;30.73;;;16.70;;
4011;SDS011;2020;48.682;9.024;2024-03-07T00:08:36;30.30;;;17.03;;
4011;SDS011;2020;48.682;9.024;2024-03-07T00:11:01;37.20;;;17.87;;
4011;SDS011;2020;48.682;9.024;2024-03-07T00:13:27;32.80;;;17.43;;
4011;SDS011;2020;48.682;9.024;2024-03-07T00:15:52;30.13;;;18.80;;
4011;SDS011;2020;48.682;9.024;2024-03-07T00:18:18;33.23;;;15.73;;
4011;SDS011;2020;48.682;9.024;2024-03-07T00:20:44;23.90;;;16.33;;
4011;SDS011;2020;48.682;9.024;2024-03-07T00:23:09;34.73;;;17.97;;
4011;SDS011;2020;48.682;9.024;2024-03-07T00:25:34;27.73;;;18.37;;
4011;SDS011;2020;48.682;9.024;2024-03-07T00:28:00;33.53;;;18.70;;
4011;SDS011;2020;48.682;9.024;2024-03-07T00:30:28;39.50;;;18.10;;
4011;SDS011;2020;48.682;9.024;2024-03-07T00:32:54;33.77;;;19.13;;
4011;SDS011;2020;48.682;9.024;2024-03-07T00:35:20;31.90;;;17.93;;
4011;SDS011;2020;48.682;9.024;2024-03-07T00:37:46;37.90;;;19.67;;
4011;SDS011;2020;48.682;9.024;2024-03-07T00:40:11;33.20;;;17.17;;
4011;SDS011;2020;48.682;9.024;2024-03-07T00:42:37;29.73;;;17.00;;
4011;SDS011;2020;48.682;9.024;2024-03-07T00:45:02;30.00;;;17.53;;
4011;SDS011;2020;48.682;9.024;2024-03-07T00:47:28;29.43;;;19.00;;
4011;SDS011;2020;48.682;9.024;2024-03-07T00:49:53;28.80;;;17.60;;
4011;SDS011;2020;48.682;9.024;2024-03-07T00:52:19;34.43;;;19.33;;
4011;SDS011;2020;48.682;9.024;2024-03-07T00:54:44;36.03;;;18.80;;
4011;SDS011;2020;48.682;9.024;2024-03-07T00:57:10;32.93;;;18.80;;
4011;SDS011;2020;48.682;9.024;2024-03-07T00:59:35;31.67;;;17.60;;
4011;SDS011;2020;48.682;9.024;2024-03-07T01:02:00;38.77;;;18.40;;
4011;SDS011;2020;48.682;9.024;2024-03-07T01:04:26;37.20;;;19.67;;
4011;SDS011;2020;48.682;9.024;2024-03-07T01:06:58;32.50;;;18.40;;
4011;SDS011;2020;48.682;9.024;2024-03-07T01:09:27;35.33;;;19.43;;
4011;SDS011;2020;48.682;9.024;2024-03-07T01:11:53;38.17;;;20.10;;
4011;SDS011;2020;48.682;9.024;2024-03-07T01:14:19;31.93;;;18.73;;
4011;SDS011;2020;48.682;9.024;2024-03-07T01:16:45;33.43;;;20.37;;
4011;SDS011;2020;48.682;9.024;2024-03-07T01:19:12;45.37;;;21.40;;
4011;SDS011;2020;48.682;9.024;2024-03-07T01:21:38;36.87;;;20.17;;
4011;SDS011;2020;48.682;9.024;2024-03-07T01:24:03;39.00;;;20.03;;
4011;SDS011;2020;48.682;9.024;2024-03-07T01:26:30;36.63;;;19.20;;
4011;SDS011;2020;48.682;9.024;2024-03-07T01:28:58;40.67;;;19.97;;
4011;SDS011;2020;48.682;9.024;2024-03-07T01:31:24;37.80;;;20.23;;
4011;SDS011;2020;48.682;9.024;2024-03-07T01:33:49;38.17;;;22.50;;
4011;SDS011;2020;48.682;9.024;2024-03-07T01:36:15;40.63;;;21.93;;
4011;SDS011;2020;48.682;9.024;2024-03-07T01:38:40;31.87;;;18.20;;
4011;SDS011;2020;48.682;9.024;2024-03-07T01:41:06;36.30;;;19.10;;
4011;SDS011;2020;48.682;9.024;2024-03-07T01:43:31;41.57;;;20.10;;
4011;SDS011;2020;48.682;9.024;2024-03-07T01:45:56;36.47;;;20.07;;
4011;SDS011;2020;48.682;9.024;2024-03-07T01:48:26;31.47;;;19.67;;
4011;SDS011;2020;48.682;9.024;2024-03-07T01:50:53;42.80;;;21.03;;
4011;SDS011;2020;48.682;9.024;2024-03-07T01:53:20;32.03;;;19.63;;
4011;SDS011;2020;48.682;9.024;2024-03-07T01:55:47;29.13;;;19.10;;
4011;SDS011;2020;48.682;9.024;2024-03-07T01:58:13;38.40;;;20.80;;
4011;SDS011;2020;48.682;9.024;2024-03-07T02:00:43;35.27;;;20.63;;
4011;SDS011;2020;48.682;9.024;2024-03-07T02:03:09;40.07;;;20.30;;
4011;SDS011;2020;48.682;9.024;2024-03-07T02:05:34;31.83;;;19.20;;
4011;SDS011;2020;48.682;9.024;2024-03-07T02:08:00;29.87;;;18.93;;
4011;SDS011;2020;48.682;9.024;2024-03-07T02:10:26;35.67;;;19.43;;
4011;SDS011;2020;48.682;9.024;2024-03-07T02:12:52;33.10;;;17.70;;
4011;SDS011;2020;48.682;9.024;2024-03-07T02:15:17;36.43;;;20.27;;
4011;SDS011;2020;48.682;9.024;2024-03-07T02:17:42;35.97;;;20.57;;
4011;SDS011;2020;48.682;9.024;2024-03-07T02:20:09;35.30;;;19.97;;
4011;SDS011;2020;48.682;9.024;2024-03-07T02:22:36;33.87;;;20.13;;
4011;SDS011;2020;48.682;9.024;2024-03-07T02:25:02;35.63;;;21.70;;
4011;SDS011;2020;48.682;9.024;2024-03-07T02:27:27;35.83;;;20.37;;
4011;SDS011;2020;48.682;9.024;2024-03-07T02:29:52;35.57;;;19.60;;
4011;SDS011;2020;48.682;9.024;2024-03-07T02:32:17;39.63;;;21.30;;
4011;SDS011;2020;48.682;9.024;2024-03-07T02:34:43;34.23;;;18.87;;
4011;SDS011;2020;48.682;9.024;2024-03-07T02:37:08;36.10;;;18.30;;
4011;SDS011;2020;48.682;9.024;2024-03-07T02:39:34;34.10;;;19.50;;
4011;SDS011;2020;48.682;9.024;2024-03-07T02:42:01;35.47;;;19.13;;
4011;SDS011;2020;48.682;9.024;2024-03-07T02:44:26;37.07;;;20.23;;
4011;SDS011;2020;48.682;9.024;2024-03-07T02:46:51;38.47;;;20.40;;
4011;SDS011;2020;48.682;9.024;2024-03-07T02:49:16;27.60;;;17.03;;
4011;SDS011;2020;48.682;9.024;2024-03-07T02:51:42;34.67;;;18.83;;
4011;SDS011;2020;48.682;9.024;2024-03-07T02:54:07;35.80;;;19.80;;
4011;SDS011;2020;48.682;9.024;2024-03-07T02:56:33;31.57;;;19.30;;
4011;SDS011;2020;48.682;9.024;2024-03-07T02:58:58;28.27;;;16.87;;
4011;SDS011;2020;48.682;9.024;2024-03-07T03:01:24;34.27;;;19.53;;
4011;SDS011;2020;48.682;9.024;2024-03-07T03:03:49;30.80;;;18.70;;
4011;SDS011;2020;48.682;9.024;2024-03-07T03:06:14;35.80;;;18.90;;
4011;SDS011;2020;48.682;9.024;2024-03-07T03:08:40;33.37;;;19.13;;
4011;SDS011;2020;48.682;9.024;2024-03-07T03:11:05;35.03;;;18.30;;
4011;SDS011;2020;48.682;9.024;2024-03-07T03:13:30;35.93;;;19.90;;
4011;SDS011;2020;48.682;9.024;2024-03-07T03:15:56;35.00;;;18.77;;
4011;SDS011;2020;48.682;9.024;2024-03-07T03:18:21;40.43;;;19.47;;
4011;SDS011;2020;48.682;9.024;2024-03-07T03:20:48;33.60;;;17.70;;
4011;SDS011;2020;48.682;9.024;2024-03-07T03:23:13;32.80;;;19.20;;
4011;SDS011;2020;48.682;9.024;2024-03-07T03:25:39;31.53;;;17.60;;
4011;SDS011;2020;48.682;9.024;2024-03-07T03:28:05;36.43;;;19.30;;
4011;SDS011;2020;48.682;9.024;2024-03-07T03:30:31;28.53;;;17.00;;
4011;SDS011;2020;48.682;9.024;2024-03-07T03:32:57;27.33;;;16.93;;
4011;SDS011;2020;48.682;9.024;2024-03-07T03:35:23;34.33;;;17.87;;
4011;SDS011;2020;48.682;9.024;2024-03-07T03:37:48;30.80;;;17.63;;
4011;SDS011;2020;48.682;9.024;2024-03-07T03:40:13;31.80;;;17.43;;
4011;SDS011;2020;48.682;9.024;2024-03-07T03:42:39;29.30;;;16.03;;
4011;SDS011;2020;48.682;9.024;2024-03-07T03:45:06;29.47;;;16.43;;
4011;SDS011;2020;48.682;9.024;2024-03-07T03:47:36;29.80;;;16.13;;
4011;SDS011;2020;48.682;9.024;2024-03-07T03:50:02;29.00;;;17.00;;
4011;SDS011;2020;48.682;9.024;2024-03-07T03:52:29;31.83;;;19.77;;
4011;SDS011;2020;48.682;9.024;2024-03-07T03:54:54;36.77;;;17.63;;
4011;SDS011;2020;48.682;9.024;2024-03-07T03:57:19;31.60;;;18.53;;
4011;SDS011;2020;48.682;9.024;2024-03-07T03:59:45;30.37;;;17.37;;
4011;SDS011;2020;48.682;9.024;2024-03-07T04:02:10;31.37;;;16.87;;
4011;SDS011;2020;48.682;9.024;2024-03-07T04:04:38;32.33;;;18.27;;
4011;SDS011;2020;48.682;9.024;2024-03-07T04:07:06;29.70;;;18.53;;
4011;SDS011;2020;48.682;9.024;2024-03-07T04:09:31;30.10;;;18.00;;
4011;SDS011;2020;48.682;9.024;2024-03-07T04:11:57;43.17;;;19.63;;
4011;SDS011;2020;48.682;9.024;2024-03-07T04:14:25;29.97;;;17.70;;
4011;SDS011;2020;48.682;9.024;2024-03-07T04:16:51;30.70;;;18.10;;
4011;SDS011;2020;48.682;9.024;2024-03-07T04:19:16;29.10;;;17.33;;
4011;SDS011;2020;48.682;9.024;2024-03-07T04:21:45;30.87;;;17.80;;
4011;SDS011;2020;48.682;9.024;2024-03-07T04:24:10;30.83;;;17.17;;
4011;SDS011;2020;48.682;9.024;2024-03-07T04:26:37;40.43;;;18.73;;
4011;SDS011;2020;48.682;9.024;2024-03-07T04:29:02;30.20;;;16.80;;
4011;SDS011;2020;48.682;9.024;2024-03-07T04:31:27;35.43;;;21.43;;
4011;SDS011;2020;48.682;9.024;2024-03-07T04:33:53;41.70;;;19.40;;
4011;SDS011;2020;48.682;9.024;2024-03-07T04:36:18;34.47;;;18.43;;
4011;SDS011;2020;48.682;9.024;2024-03-07T04:38:43;38.10;;;19.77;;
4011;SDS011;2020;48.682;9.024;2024-03-07T04:41:13;41.63;;;20.80;;
4011;SDS011;2020;48.682;9.024;2024-03-07T04:43:40;43.43;;;20.13;;
4011;SDS011;2020;48.682;9.024;2024-03-07T04:46:05;35.47;;;20.20;;
4011;SDS011;2020;48.682;9.024;2024-03-07T04:48:31;39.73;;;21.47;;
4011;SDS011;2020;48.682;9.024;2024-03-07T04:50:57;38.63;;;20.70;;
4011;SDS011;2020;48.682;9.024;2024-03-07T04:53:23;38.77;;;20.80;;
4011;SDS011;2020;48.682;9.024;2024-03-07T04:55:48;39.83;;;21.10;;
4011;SDS011;2020;48.682;9.024;2024-03-07T04:58:13;41.40;;;20.63;;
4011;SDS011;2020;48.682;9.024;2024-03-07T05:00:39;39.83;;;19.73;;
4011;SDS011;2020;48.682;9.024;2024-03-07T05:03:04;40.77;;;20.90;;
4011;SDS011;2020;48.682;9.024;2024-03-07T05:05:29;40.10;;;22.10;;
4011;SDS011;2020;48.682;9.024;2024-03-07T05:07:55;39.63;;;21.50;;
4011;SDS011;2020;48.682;9.024;2024-03-07T05:10:23;45.90;;;23.13;;
4011;SDS011;2020;48.682;9.024;2024-03-07T05:12:48;49.30;;;22.27;;
4011;SDS011;2020;48.682;9.024;2024-03-07T05:15:13;50.40;;;22.00;;
4011;SDS011;2020;48.682;9.024;2024-03-07T05:17:39;37.43;;;19.77;;
4011;SDS011;2020;48.682;9.024;2024-03-07T05:20:06;40.03;;;19.77;;
4011;SDS011;2020;48.682;9.024;2024-03-07T05:22:41;39.37;;;20.33;;
4011;SDS011;2020;48.682;9.024;2024-03-07T05:25:09;35.10;;;19.87;;
4011;SDS011;2020;48.682;9.024;2024-03-07T05:27:34;37.33;;;21.07;;
4011;SDS011;2020;48.682;9.024;2024-03-07T05:30:01;40.67;;;21.70;;
4011;SDS011;2020;48.682;9.024;2024-03-07T05:32:28;36.97;;;20.73;;
4011;SDS011;2020;48.682;9.024;2024-03-07T05:34:53;37.00;;;21.13;;
4011;SDS011;2020;48.682;9.024;2024-03-07T05:37:19;41.60;;;20.90;;
4011;SDS011;2020;48.682;9.024;2024-03-07T05:39:47;31.90;;;19.33;;
4011;SDS011;2020;48.682;9.024;2024-03-07T05:42:15;37.80;;;17.60;;
4011;SDS011;2020;48.682;9.024;2024-03-07T05:44:41;35.70;;;19.80;;
4011;SDS011;2020;48.682;9.024;2024-03-07T05:47:07;35.40;;;18.97;;
4011;SDS011;2020;48.682;9.024;2024-03-07T05:49:33;36.17;;;20.40;;
4011;SDS011;2020;48.682;9.024;2024-03-07T05:51:58;37.90;;;19.33;;
4011;SDS011;2020;48.682;9.024;2024-03-07T05:54:23;33.47;;;18.90;;
4011;SDS011;2020;48.682;9.024;2024-03-07T05:56:49;34.73;;;18.30;;
4011;SDS011;2020;48.682;9.024;2024-03-07T05:59:15;31.63;;;18.10;;
4011;SDS011;2020;48.682;9.024;2024-03-07T06:01:42;38.70;;;20.43;;
4011;SDS011;2020;48.682;9.024;2024-03-07T06:04:09;33.77;;;18.40;;
4011;SDS011;2020;48.682;9.024;2024-03-07T06:06:35;35.00;;;20.50;;
4011;SDS011;2020;48.682;9.024;2024-03-07T06:09:02;37.67;;;19.80;;
4011;SDS011;2020;48.682;9.024;2024-03-07T06:11:32;36.47;;;20.30;;
4011;SDS011;2020;48.682;9.024;2024-03-07T06:14:05;34.57;;;19.60;;
4011;SDS011;2020;48.682;9.024;2024-03-07T06:16:31;41.07;;;22.63;;
4011;SDS011;2020;48.682;9.024;2024-03-07T06:19:00;37.57;;;20.30;;
4011;SDS011;2020;48.682;9.024;2024-03-07T06:21:26;37.00;;;18.90;;
4011;SDS011;2020;48.682;9.024;2024-03-07T06:23:52;36.87;;;20.30;;
4011;SDS011;2020;48.682;9.024;2024-03-07T06:26:24;33.27;;;19.30;;
4011;SDS011;2020;48.682;9.024;2024-03-07T06:29:05;30.70;;;18.67;;
4011;SDS011;2020;48.682;9.024;2024-03-07T06:31:31;29.33;;;17.93;;
4011;SDS011;2020;48.682;9.024;2024-03-07T06:33:56;32.80;;;18.13;;
4011;SDS011;2020;48.682;9.024;2024-03-07T06:36:22;39.47;;;21.37;;
4011;SDS011;2020;48.682;9.024;2024-03-07T06:38:48;41.67;;;20.10;;
4011;SDS011;2020;48.682;9.024;2024-03-07T06:41:14;37.33;;;19.37;;
4011;SDS011;2020;48.682;9.024;2024-03-07T06:43:39;34.30;;;19.40;;
4011;SDS011;2020;48.682;9.024;2024-03-07T06:46:04;40.13;;;20.97;;
4011;SDS011;2020;48.682;9.024;2024-03-07T06:48:31;39.63;;;19.90;;
4011;SDS011;2020;48.682;9.024;2024-03-07T06:50:56;33.17;;;21.00;;
4011;SDS011;2020;48.682;9.024;2024-03-07T06:53:21;35.30;;;19.07;;
4011;SDS011;2020;48.682;9.024;2024-03-07T06:55:51;36.40;;;21.13;;
4011;SDS011;2020;48.682;9.024;2024-03-07T06:58:18;44.03;;;21.17;;
4011;SDS011;2020;48.682;9.024;2024-03-07T07:00:44;39.00;;;20.33;;
4011;SDS011;2020;48.682;9.024;2024-03-07T07:03:10;33.63;;;18.30;;
4011;SDS011;2020;48.682;9.024;2024-03-07T07:05:37;33.83;;;19.50;;
4011;SDS011;2020;48.682;9.024;2024-03-07T07:08:03;42.60;;;21.93;;
4011;SDS011;2020;48.682;9.024;2024-03-07T07:10:29;34.27;;;19.60;;
4011;SDS011;2020;48.682;9.024;2024-03-07T07:12:54;37.97;;;20.67;;
4011;SDS011;2020;48.682;9.024;2024-03-07T07:15:20;38.87;;;20.93;;
4011;SDS011;2020;48.682;9.024;2024-03-07T07:17:46;39.07;;;19.83;;
4011;SDS011;2020;48.682;9.024;2024-03-07T07:20:11;33.63;;;18.20;;
4011;SDS011;2020;48.682;9.024;2024-03-07T07:22:40;35.07;;;20.13;;
4011;SDS011;2020;48.682;9.024;2024-03-07T07:25:06;39.07;;;20.07;;
4011;SDS011;2020;48.682;9.024;2024-03-07T07:27:39;39.90;;;18.53;;
4011;SDS011;2020;48.682;9.024;2024-03-07T07:30:07;47.40;;;19.17;;
4011;SDS011;2020;48.682;9.024;2024-03-07T07:32:32;37.23;;;21.00;;
4011;SDS011;2020;48.682;9.024;2024-03-07T07:34:58;34.77;;;19.57;;
4011;SDS011;2020;48.682;9.024;2024-03-07T07:37:23;34.93;;;19.23;;
4011;SDS011;2020;48.682;9.024;2024-03-07T07:39:48;37.17;;;18.83;;
4011;SDS011;2020;48.682;9.024;2024-03-07T07:42:13;36.63;;;19.70;;
4011;SDS011;2020;48.682;9.024;2024-03-07T07:44:39;35.03;;;18.03;;
4011;SDS011;2020;48.682;9.024;2024-03-07T07:47:05;36.43;;;18.27;;
4011;SDS011;2020;48.682;9.024;2024-03-07T07:49:30;35.57;;;19.53;;
4011;SDS011;2020;48.682;9.024;2024-03-07T07:51:56;28.20;;;16.47;;
4011;SDS011;2020;48.682;9.024;2024-03-07T07:54:21;36.50;;;18.10;;
4011;SDS011;2020;48.682;9.024;2024-03-07T07:56:46;36.23;;;17.23;;
4011;SDS011;2020;48.682;9.024;2024-03-07T07:59:12;34.00;;;17.67;;
4011;SDS011;2020;48.682;9.024;2024-03-07T08:01:38;33.03;;;18.37;;
4011;SDS011;2020;48.682;9.024;2024-03-07T08:04:03;33.63;;;19.30;;
4011;SDS011;2020;48.682;9.024;2024-03-07T08:06:29;36.93;;;18.80;;
4011;SDS011;2020;48.682;9.024;2024-03-07T08:08:55;32.87;;;19.50;;
4011;SDS011;2020;48.682;9.024;2024-03-07T08:11:20;37.67;;;19.50;;
4011;SDS011;2020;48.682;9.024;2024-03-07T08:13:45;31.40;;;18.07;;
4011;SDS011;2020;48.682;9.024;2024-03-07T08:16:14;40.70;;;19.23;;
4011;SDS011;2020;48.682;9.024;2024-03-07T08:18:40;38.63;;;19.60;;
4011;SDS011;2020;48.682;9.024;2024-03-07T08:21:06;36.17;;;18.20;;
4011;SDS011;2020;48.682;9.024;2024-03-07T08:23:31;37.80;;;18.07;;
4011;SDS011;2020;48.682;9.024;2024-03-07T08:25:56;29.83;;;16.93;;
4011;SDS011;2020;48.682;9.024;2024-03-07T08:28:22;34.23;;;18.90;;
4011;SDS011;2020;48.682;9.024;2024-03-07T08:30:48;33.90;;;19.17;;
4011;SDS011;2020;48.682;9.024;2024-03-07T08:33:13;34.37;;;18.87;;
4011;SDS011;2020;48.682;9.024;2024-03-07T08:35:38;45.07;;;21.90;;
4011;SDS011;2020;48.682;9.024;2024-03-07T08:38:04;38.10;;;20.40;;
4011;SDS011;2020;48.682;9.024;2024-03-07T08:40:30;44.17;;;23.87;;
4011;SDS011;2020;48.682;9.024;2024-03-07T08:42:59;41.00;;;21.20;;
4011;SDS011;2020;48.682;9.024;2024-03-07T08:45:26;34.73;;;19.40;;
4011;SDS011;2020;48.682;9.024;2024-03-07T08:47:52;38.53;;;20.67;;
4011;SDS011;2020;48.682;9.024;2024-03-07T08:50:19;39.80;;;20.70;;
4011;SDS011;2020;48.682;9.024;2024-03-07T08:52:45;37.10;;;21.10;;
4011;SDS011;2020;48.682;9.024;2024-03-07T08:55:13;37.43;;;20.57;;
4011;SDS011;2020;48.682;9.024;2024-03-07T08:57:40;37.00;;;19.73;;
4011;SDS011;2020;48.682;9.024;2024-03-07T09:00:06;41.00;;;21.57;;
4011;SDS011;2020;48.682;9.024;2024-03-07T09:02:36;39.33;;;22.00;;
4011;SDS011;2020;48.682;9.024;2024-03-07T09:05:03;42.37;;;21.90;;
4011;SDS011;2020;48.682;9.024;2024-03-07T09:07:29;48.57;;;21.87;;
4011;SDS011;2020;48.682;9.024;2024-03-07T09:09:54;38.43;;;21.60;;
4011;SDS011;2020;48.682;9.024;2024-03-07T09:12:20;40.83;;;21.47;;
4011;SDS011;2020;48.682;9.024;2024-03-07T09:14:45;41.33;;;22.17;;
4011;SDS011;2020;48.682;9.024;2024-03-07T09:17:10;45.90;;;22.17;;
4011;SDS011;2020;48.682;9.024;2024-03-07T09:19:35;40.90;;;22.67;;
4011;SDS011;2020;48.682;9.024;2024-03-07T09:22:01;38.70;;;21.57;;
4011;SDS011;2020;48.682;9.024;2024-03-07T09:24:28;45.63;;;21.03;;
4011;SDS011;2020;48.682;9.024;2024-03-07T09:26:53;41.83;;;21.50;;
4011;SDS011;2020;48.682;9.024;2024-03-07T09:29:21;47.53;;;21.50;;
4011;SDS011;2020;48.682;9.024;2024-03-07T09:31:48;38.87;;;22.30;;
4011;SDS011;2020;48.682;9.024;2024-03-07T09:34:16;32.00;;;18.53;;
4011;SDS011;2020;48.682;9.024;2024-03-07T09:36:42;39.57;;;20.63;;
4011;SDS011;2020;48.682;9.024;2024-03-07T09:39:08;34.90;;;19.00;;
4011;SDS011;2020;48.682;9.024;2024-03-07T09:41:34;37.67;;;18.57;;
4011;SDS011;2020;48.682;9.024;2024-03-07T09:43:59;34.93;;;19.10;;
4011;SDS011;2020;48.682;9.024;2024-03-07T09:46:26;38.13;;;19.63;;
4011;SDS011;2020;48.682;9.024;2024-03-07T09:48:52;37.60;;;19.30;;
4011;SDS011;2020;48.682;9.024;2024-03-07T09:51:19;44.23;;;21.97;;
4011;SDS011;2020;48.682;9.024;2024-03-07T09:53:46;41.30;;;19.70;;
4011;SDS011;2020;48.682;9.024;2024-03-07T09:56:13;40.10;;;19.87;;
4011;SDS011;2020;48.682;9.024;2024-03-07T09:58:42;45.13;;;21.87;;
4011;SDS011;2020;48.682;9.024;2024-03-07T10:01:10;52.00;;;22.70;;
4011;SDS011;2020;48.682;9.024;2024-03-07T10:03:36;38.00;;;20.80;;
4011;SDS011;2020;48.682;9.024;2024-03-07T10:06:05;46.80;;;20.77;;
4011;SDS011;2020;48.682;9.024;2024-03-07T10:08:31;39.93;;;21.57;;
4011;SDS011;2020;48.682;9.024;2024-03-07T10:10:56;39.27;;;22.10;;
4011;SDS011;2020;48.682;9.024;2024-03-07T10:13:22;38.97;;;21.43;;
4011;SDS011;2020;48.682;9.024;2024-03-07T10:15:47;42.23;;;21.80;;
4011;SDS011;2020;48.682;9.024;2024-03-07T10:18:13;35.17;;;19.13;;
4011;SDS011;2020;48.682;9.024;2024-03-07T10:20:39;44.07;;;20.50;;
4011;SDS011;2020;48.682;9.024;2024-03-07T10:23:04;29.63;;;18.80;;
4011;SDS011;2020;48.682;9.024;2024-03-07T10:25:32;38.40;;;19.50;;
4011;SDS011;2020;48.682;9.024;2024-03-07T10:27:58;36.07;;;18.20;;
4011;SDS011;2020;48.682;9.024;2024-03-07T10:30:23;38.30;;;19.70;;
4011;SDS011;2020;48.682;9.024;2024-03-07T10:32:57;41.00;;;20.73;;
4011;SDS011;2020;48.682;9.024;2024-03-07T10:35:24;39.37;;;19.50;;
4011;SDS011;2020;48.682;9.024;2024-03-07T10:37:50;31.93;;;18.23;;
4011;SDS011;2020;48.682;9.024;2024-03-07T10:40:18;34.30;;;19.60;;
4011;SDS011;2020;48.682;9.024;2024-03-07T10:42:45;39.50;;;20.30;;
4011;SDS011;2020;48.682;9.024;2024-03-07T10:45:17;39.10;;;19.03;;
4011;SDS011;2020;48.682;9.024;2024-03-07T10:47:46;34.67;;;17.60;;
4011;SDS011;2020;48.682;9.024;2024-03-07T10:53:27;34.23;;;18.27;;
4011;SDS011;2020;48.682;9.024;2024-03-07T11:01:25;30.87;;;17.07;;
4011;SDS011;2020;48.682;9.024;2024-03-07T11:03:55;21.73;;;13.87;;
4011;SDS011;2020;48.682;9.024;2024-03-07T11:06:22;25.23;;;14.50;;
4011;SDS011;2020;48.682;9.024;2024-03-07T11:08:48;36.17;;;16.43;;
4011;SDS011;2020;48.682;9.024;2024-03-07T11:11:16;30.50;;;14.97;;
4011;SDS011;2020;48.682;9.024;2024-03-07T11:13:41;29.10;;;13.73;;
4011;SDS011;2020;48.682;9.024;2024-03-07T11:16:07;25.00;;;14.37;;
4011;SDS011;2020;48.682;9.024;2024-03-07T11:18:35;26.30;;;17.40;;
4011;SDS011;2020;48.682;9.024;2024-03-07T11:21:00;27.00;;;14.90;;
4011;SDS011;2020;48.682;9.024;2024-03-07T11:26:16;28.70;;;14.90;;
4011;SDS011;2020;48.682;9.024;2024-03-07T11:28:41;35.20;;;14.93;;
4011;SDS011;2020;48.682;9.024;2024-03-07T11:31:12;33.40;;;14.80;;
4011;SDS011;2020;48.682;9.024;2024-03-07T11:33:39;26.60;;;14.03;;
4011;SDS011;2020;48.682;9.024;2024-03-07T11:36:08;31.10;;;15.00;;
4011;SDS011;2020;48.682;9.024;2024-03-07T11:38:36;25.50;;;14.80;;
4011;SDS011;2020;48.682;9.024;2024-03-07T11:41:02;31.30;;;14.93;;
4011;SDS011;2020;48.682;9.024;2024-03-07T11:43:30;32.40;;;15.90;;
4011;SDS011;2020;48.682;9.024;2024-03-07T11:45:56;38.53;;;16.10;;
4011;SDS011;2020;48.682;9.024;2024-03-07T11:48:22;21.97;;;13.10;;
4011;SDS011;2020;48.682;9.024;2024-03-07T11:50:48;36.97;;;17.50;;
4011;SDS011;2020;48.682;9.024;2024-03-07T11:53:14;31.47;;;16.50;;
4011;SDS011;2020;48.682;9.024;2024-03-07T11:55:39;22.60;;;13.50;;
4011;SDS011;2020;48.682;9.024;2024-03-07T11:58:15;28.00;;;15.67;;
4011;SDS011;2020;48.682;9.024;2024-03-07T12:00:42;24.73;;;14.73;;
4011;SDS011;2020;48.682;9.024;2024-03-07T12:03:10;33.37;;;17.40;;
4011;SDS011;2020;48.682;9.024;2024-03-07T12:05:38;28.27;;;15.30;;
4011;SDS011;2020;48.682;9.024;2024-03-07T12:08:04;36.83;;;14.80;;
4011;SDS011;2020;48.682;9.024;2024-03-07T12:10:30;27.47;;;15.50;;
4011;SDS011;2020;48.682;9.024;2024-03-07T12:12:56;40.77;;;14.87;;
4011;SDS011;2020;48.682;9.024;2024-03-07T12:15:21;31.77;;;16.80;;
4011;SDS011;2020;48.682;9.024;2024-03-07T12:17:48;26.67;;;14.13;;
4011;SDS011;2020;48.682;9.024;2024-03-07T12:20:15;28.83;;;14.07;;
4011;SDS011;2020;48.682;9.024;2024-03-07T12:22:55;26.97;;;14.57;;
4011;SDS011;2020;48.682;9.024;2024-03-07T12:25:21;34.63;;;15.10;;
4011;SDS011;2020;48.682;9.024;2024-03-07T12:28:02;33.03;;;17.47;;
4011;SDS011;2020;48.682;9.024;2024-03-07T12:30:50;30.73;;;16.57;;
4011;SDS011;2020;48.682;9.024;2024-03-07T12:33:17;25.73;;;16.00;;
4011;SDS011;2020;48.682;9.024;2024-03-07T12:35:44;27.80;;;15.10;;
4011;SDS011;2020;48.682;9.024;2024-03-07T12:38:11;26.40;;;14.53;;
4011;SDS011;2020;48.682;9.024;2024-03-07T12:40:38;32.00;;;16.10;;
4011;SDS011;2020;48.682;9.024;2024-03-07T12:43:17;35.00;;;16.87;;
4011;SDS011;2020;48.682;9.024;2024-03-07T12:45:50;34.50;;;16.90;;
4011;SDS011;2020;48.682;9.024;2024-03-07T12:48:19;37.53;;;15.97;;
4011;SDS011;2020;48.682;9.024;2024-03-07T12:50:46;28.53;;;16.70;;
4011;SDS011;2020;48.682;9.024;2024-03-07T12:53:18;28.20;;;17.10;;
4011;SDS011;2020;48.682;9.024;2024-03-07T12:55:47;30.77;;;16.67;;
4011;SDS011;2020;48.682;9.024;2024-03-07T12:58:12;29.40;;;14.57;;
4011;SDS011;2020;48.682;9.024;2024-03-07T13:00:38;33.27;;;17.60;;
4011;SDS011;2020;48.682;9.024;2024-03-07T13:03:06;31.00;;;16.13;;
4011;SDS011;2020;48.682;9.024;2024-03-07T13:05:31;36.57;;;16.63;;
4011;SDS011;2020;48.682;9.024;2024-03-07T13:07:56;30.97;;;17.23;;
4011;SDS011;2020;48.682;9.024;2024-03-07T13:10:22;32.70;;;18.87;;
4011;SDS011;2020;48.682;9.024;2024-03-07T13:12:48;37.03;;;19.27;;
4011;SDS011;2020;48.682;9.024;2024-03-07T13:15:14;32.23;;;17.97;;
4011;SDS011;2020;48.682;9.024;2024-03-07T13:17:40;30.13;;;17.33;;
4011;SDS011;2020;48.682;9.024;2024-03-07T13:20:08;44.97;;;20.80;;
4011;SDS011;2020;48.682;9.024;2024-03-07T13:22:42;32.47;;;16.70;;
4011;SDS011;2020;48.682;9.024;2024-03-07T13:25:22;35.97;;;20.80;;
4011;SDS011;2020;48.682;9.024;2024-03-07T13:30:34;33.83;;;18.90;;
4011;SDS011;2020;48.682;9.024;2024-03-07T13:33:01;39.87;;;22.03;;
4011;SDS011;2020;48.682;9.024;2024-03-07T13:35:28;32.47;;;17.40;;
4011;SDS011;2020;48.682;9.024;2024-03-07T13:37:53;36.67;;;19.03;;
4011;SDS011;2020;48.682;9.024;2024-03-07T13:40:20;39.73;;;20.27;;
4011;SDS011;2020;48.682;9.024;2024-03-07T13:42:56;29.50;;;18.27;;
4011;SDS011;2020;48.682;9.024;2024-03-07T13:45:26;41.87;;;21.93;;
4011;SDS011;2020;48.682;9.024;2024-03-07T13:47:53;36.33;;;19.30;;
4011;SDS011;2020;48.682;9.024;2024-03-07T13:50:20;31.97;;;18.87;;
4011;SDS011;2020;48.682;9.024;2024-03-07T13:52:48;34.73;;;18.60;;
4011;SDS011;2020;48.682;9.024;2024-03-07T13:58:50;30.60;;;18.87;;
4011;SDS011;2020;48.682;9.024;2024-03-07T14:15:42;31.57;;;16.63;;
4011;SDS011;2020;48.682;9.024;2024-03-07T14:24:49;35.13;;;19.63;;
4011;SDS011;2020;48.682;9.024;2024-03-07T14:27:33;28.50;;;18.60;;
4011;SDS011;2020;48.682;9.024;2024-03-07T14:32:47;39.37;;;20.40;;
4011;SDS011;2020;48.682;9.024;2024-03-07T14:38:23;29.97;;;17.47;;
4011;SDS011;2020;48.682;9.024;2024-03-07T14:40:52;38.37;;;20.17;;
4011;SDS011;2020;48.682;9.024;2024-03-07T14:43:18;29.97;;;17.93;;
4011;SDS011;2020;48.682;9.024;2024-03-07T14:45:45;30.70;;;18.20;;
4011;SDS011;2020;48.682;9.024;2024-03-07T14:48:12;37.10;;;18.60;;
4011;SDS011;2020;48.682;9.024;2024-03-07T14:50:41;27.83;;;17.70;;
4011;SDS011;2020;48.682;9.024;2024-03-07T14:53:07;35.47;;;18.77;;
4011;SDS011;2020;48.682;9.024;2024-03-07T14:55:33;28.67;;;17.70;;
4011;SDS011;2020;48.682;9.024;2024-03-07T14:58:00;29.60;;;18.20;;
4011;SDS011;2020;48.682;9.024;2024-03-07T15:00:26;34.83;;;20.73;;
4011;SDS011;2020;48.682;9.024;2024-03-07T15:02:52;34.33;;;18.87;;
4011;SDS011;2020;48.682;9.024;2024-03-07T15:05:24;30.37;;;17.33;;
4011;SDS011;2020;48.682;9.024;2024-03-07T15:07:50;30.17;;;18.93;;
4011;SDS011;2020;48.682;9.024;2024-03-07T15:10:25;30.97;;;18.60;;
4011;SDS011;2020;48.682;9.024;2024-03-07T15:12:53;31.37;;;18.90;;
4011;SDS011;2020;48.682;9.024;2024-03-07T15:15:18;31.70;;;18.67;;
4011;SDS011;2020;48.682;9.024;2024-03-07T15:17:45;31.90;;;19.40;;
4011;SDS011;2020;48.682;9.024;2024-03-07T15:20:11;35.43;;;19.70;;
4011;SDS011;2020;48.682;9.024;2024-03-07T15:23:00;30.00;;;18.47;;
4011;SDS011;2020;48.682;9.024;2024-03-07T15:25:27;35.27;;;18.77;;
4011;SDS011;2020;48.682;9.024;2024-03-07T15:27:55;37.53;;;19.20;;
4011;SDS011;2020;48.682;9.024;2024-03-07T15:30:21;36.80;;;20.30;;